sensor_id;sensor_type;location;lat;lon;timestamp;P1;durP1;ratioP1;P2;durP2;ratioP2
4810;SDS011;2419;51.276;6.472;2023-03-20T00:02:00;5.70;;;3.50;;
4810;SDS011;2419;51.276;6.472;2023-03-20T00:04:29;4.67;;;3.27;;
4810;SDS011;2419;51.276;6.472;2023-03-20T00:06:57;5.33;;;3.20;;
4810;SDS011;2419;51.276;6.472;2023-03-20T00:09:26;5.30;;;3.90;;
4810;SDS011;2419;51.276;6.472;2023-03-20T00:11:54;5.33;;;3.80;;
4810;SDS011;2419;51.276;6.472;2023-03-20T00:14:22;5.20;;;2.90;;
4810;SDS011;2419;51.276;6.472;2023-03-20T00:16:51;4.40;;;3.23;;
4810;SDS011;2419;51.276;6.472;2023-03-20T00:19:21;6.13;;;4.30;;
4810;SDS011;2419;51.276;6.472;2023-03-20T00:21:51;4.83;;;2.93;;
4810;SDS011;2419;51.276;6.472;2023-03-20T00:24:21;7.80;;;3.83;;
4810;SDS011;2419;51.276;6.472;2023-03-20T00:26:50;3.40;;;3.00;;
4810;SDS011;2419;51.276;6.472;2023-03-20T00:29:20;5.07;;;2.90;;
4810;SDS011;2419;51.276;6.472;2023-03-20T00:31:49;4.27;;;2.27;;
4810;SDS011;2419;51.276;6.472;2023-03-20T00:34:18;6.47;;;3.60;;
4810;SDS011;2419;51.276;6.472;2023-03-20T00:36:51;6.50;;;3.70;;
4810;SDS011;2419;51.276;6.472;2023-03-20T00:39:20;4.00;;;2.90;;
4810;SDS011;2419;51.276;6.472;2023-03-20T00:41:50;6.03;;;3.60;;
4810;SDS011;2419;51.276;6.472;2023-03-20T00:44:21;3.97;;;2.77;;
4810;SDS011;2419;51.276;6.472;2023-03-20T00:46:53;5.40;;;3.13;;
4810;SDS011;2419;51.276;6.472;2023-03-20T00:49:25;6.03;;;3.10;;
4810;SDS011;2419;51.276;6.472;2023-03-20T00:51:56;4.07;;;3.10;;
4810;SDS011;2419;51.276;6.472;2023-03-20T00:54:24;4.80;;;3.13;;
4810;SDS011;2419;51.276;6.472;2023-03-20T00:56:53;4.83;;;3.50;;
4810;SDS011;2419;51.276;6.472;2023-03-20T00:59:25;6.17;;;3.93;;
4810;SDS011;2419;51.276;6.472;2023-03-20T01:01:56;6.37;;;3.50;;
4810;SDS011;2419;51.276;6.472;2023-03-20T01:04:27;5.77;;;3.60;;
4810;SDS011;2419;51.276;6.472;2023-03-20T01:07:00;4.90;;;3.40;;
4810;SDS011;2419;51.276;6.472;2023-03-20T01:09:29;4.67;;;3.60;;
4810;SDS011;2419;51.276;6.472;2023-03-20T01:11:57;8.43;;;3.80;;
4810;SDS011;2419;51.276;6.472;2023-03-20T01:14:27;5.57;;;3.10;;
4810;SDS011;2419;51.276;6.472;2023-03-20T01:16:55;5.87;;;3.60;;
4810;SDS011;2419;51.276;6.472;2023-03-20T01:19:23;5.33;;;3.10;;
4810;SDS011;2419;51.276;6.472;2023-03-20T01:21:53;6.20;;;3.80;;
4810;SDS011;2419;51.276;6.472;2023-03-20T01:24:21;4.40;;;3.80;;
4810;SDS011;2419;51.276;6.472;2023-03-20T01:26:49;3.70;;;2.83;;
4810;SDS011;2419;51.276;6.472;2023-03-20T01:29:18;7.20;;;3.70;;
4810;SDS011;2419;51.276;6.472;2023-03-20T01:31:48;5.43;;;3.83;;
4810;SDS011;2419;51.276;6.472;2023-03-20T01:34:18;7.70;;;3.57;;
4810;SDS011;2419;51.276;6.472;2023-03-20T01:36:47;6.27;;;3.83;;
4810;SDS011;2419;51.276;6.472;2023-03-20T01:39:19;6.37;;;4.30;;
4810;SDS011;2419;51.276;6.472;2023-03-20T01:41:49;4.40;;;3.40;;
4810;SDS011;2419;51.276;6.472;2023-03-20T01:44:20;7.77;;;4.07;;
4810;SDS011;2419;51.276;6.472;2023-03-20T01:46:54;6.83;;;3.60;;
4810;SDS011;2419;51.276;6.472;2023-03-20T01:52:29;4.73;;;2.60;;
4810;SDS011;2419;51.276;6.472;2023-03-20T01:54:58;5.83;;;3.03;;
4810;SDS011;2419;51.276;6.472;2023-03-20T01:57:28;6.23;;;3.90;;
4810;SDS011;2419;51.276;6.472;2023-03-20T01:59:57;7.73;;;3.80;;
4810;SDS011;2419;51.276;6.472;2023-03-20T02:02:40;5.73;;;3.47;;
4810;SDS011;2419;51.276;6.472;2023-03-20T02:05:12;7.00;;;3.53;;
4810;SDS011;2419;51.276;6.472;2023-03-20T02:07:44;7.87;;;4.67;;
4810;SDS011;2419;51.276;6.472;2023-03-20T02:10:18;9.00;;;4.17;;
4810;SDS011;2419;51.276;6.472;2023-03-20T02:12:56;6.60;;;4.37;;
4810;SDS011;2419;51.276;6.472;2023-03-20T02:15:30;7.40;;;3.27;;
4810;SDS011;2419;51.276;6.472;2023-03-20T02:18:11;6.07;;;3.90;;
4810;SDS011;2419;51.276;6.472;2023-03-20T02:20:43;8.70;;;4.60;;
4810;SDS011;2419;51.276;6.472;2023-03-20T02:23:35;11.40;;;4.57;;
4810;SDS011;2419;51.276;6.472;2023-03-20T02:26:40;8.20;;;5.00;;
4810;SDS011;2419;51.276;6.472;2023-03-20T02:29:24;7.20;;;4.57;;
4810;SDS011;2419;51.276;6.472;2023-03-20T02:32:25;10.90;;;4.77;;
4810;SDS011;2419;51.276;6.472;2023-03-20T02:41:27;7.50;;;5.33;;
4810;SDS011;2419;51.276;6.472;2023-03-20T02:44:00;9.70;;;4.53;;
4810;SDS011;2419;51.276;6.472;2023-03-20T02:46:35;7.30;;;4.53;;
4810;SDS011;2419;51.276;6.472;2023-03-20T02:49:22;21.20;;;7.10;;
4810;SDS011;2419;51.276;6.472;2023-03-20T02:52:07;12.90;;;5.50;;
4810;SDS011;2419;51.276;6.472;2023-03-20T02:54:44;13.30;;;5.23;;
4810;SDS011;2419;51.276;6.472;2023-03-20T02:57:22;10.10;;;5.60;;
4810;SDS011;2419;51.276;6.472;2023-03-20T03:00:00;13.00;;;5.40;;
4810;SDS011;2419;51.276;6.472;2023-03-20T03:02:38;11.30;;;5.37;;
4810;SDS011;2419;51.276;6.472;2023-03-20T03:05:12;9.57;;;4.97;;
4810;SDS011;2419;51.276;6.472;2023-03-20T03:07:44;13.93;;;5.33;;
4810;SDS011;2419;51.276;6.472;2023-03-20T03:10:18;9.87;;;5.27;;
4810;SDS011;2419;51.276;6.472;2023-03-20T03:12:50;9.57;;;4.73;;
4810;SDS011;2419;51.276;6.472;2023-03-20T03:15:21;8.07;;;5.27;;
4810;SDS011;2419;51.276;6.472;2023-03-20T03:17:53;14.13;;;5.50;;
4810;SDS011;2419;51.276;6.472;2023-03-20T03:20:25;9.43;;;5.50;;
4810;SDS011;2419;51.276;6.472;2023-03-20T03:22:56;9.83;;;6.03;;
4810;SDS011;2419;51.276;6.472;2023-03-20T03:25:28;8.37;;;4.83;;
4810;SDS011;2419;51.276;6.472;2023-03-20T03:28:00;17.20;;;5.63;;
4810;SDS011;2419;51.276;6.472;2023-03-20T03:30:32;10.67;;;5.80;;
4810;SDS011;2419;51.276;6.472;2023-03-20T03:33:12;11.30;;;5.30;;
4810;SDS011;2419;51.276;6.472;2023-03-20T03:35:44;7.47;;;4.90;;
4810;SDS011;2419;51.276;6.472;2023-03-20T03:38:21;10.57;;;5.03;;
4810;SDS011;2419;51.276;6.472;2023-03-20T03:41:02;12.77;;;5.17;;
4810;SDS011;2419;51.276;6.472;2023-03-20T03:43:39;9.20;;;4.27;;
4810;SDS011;2419;51.276;6.472;2023-03-20T03:46:12;9.47;;;5.20;;
4810;SDS011;2419;51.276;6.472;2023-03-20T03:48:44;9.43;;;5.53;;
4810;SDS011;2419;51.276;6.472;2023-03-20T03:51:17;9.27;;;4.30;;
4810;SDS011;2419;51.276;6.472;2023-03-20T03:54:00;11.37;;;5.10;;
4810;SDS011;2419;51.276;6.472;2023-03-20T03:56:32;9.50;;;5.10;;
4810;SDS011;2419;51.276;6.472;2023-03-20T03:59:04;8.77;;;5.20;;
4810;SDS011;2419;51.276;6.472;2023-03-20T04:01:37;9.30;;;4.93;;
4810;SDS011;2419;51.276;6.472;2023-03-20T04:04:10;13.20;;;5.80;;
4810;SDS011;2419;51.276;6.472;2023-03-20T04:06:41;9.10;;;4.37;;
4810;SDS011;2419;51.276;6.472;2023-03-20T04:09:09;7.50;;;4.27;;
4810;SDS011;2419;51.276;6.472;2023-03-20T04:11:39;6.87;;;4.27;;
4810;SDS011;2419;51.276;6.472;2023-03-20T04:14:07;6.80;;;4.30;;
4810;SDS011;2419;51.276;6.472;2023-03-20T04:16:35;11.03;;;5.30;;
4810;SDS011;2419;51.276;6.472;2023-03-20T04:19:03;6.20;;;4.40;;
4810;SDS011;2419;51.276;6.472;2023-03-20T04:21:31;8.50;;;3.40;;
4810;SDS011;2419;51.276;6.472;2023-03-20T04:24:02;6.80;;;4.33;;
4810;SDS011;2419;51.276;6.472;2023-03-20T04:26:31;6.97;;;4.13;;
4810;SDS011;2419;51.276;6.472;2023-03-20T04:29:00;9.00;;;4.97;;
4810;SDS011;2419;51.276;6.472;2023-03-20T04:31:52;7.53;;;4.63;;
4810;SDS011;2419;51.276;6.472;2023-03-20T04:34:36;8.27;;;4.30;;
4810;SDS011;2419;51.276;6.472;2023-03-20T04:37:20;10.03;;;4.70;;
4810;SDS011;2419;51.276;6.472;2023-03-20T04:39:56;6.13;;;4.07;;
4810;SDS011;2419;51.276;6.472;2023-03-20T04:42:24;5.83;;;4.60;;
4810;SDS011;2419;51.276;6.472;2023-03-20T04:44:59;7.87;;;4.30;;
4810;SDS011;2419;51.276;6.472;2023-03-20T04:47:29;7.67;;;4.47;;
4810;SDS011;2419;51.276;6.472;2023-03-20T04:49:57;8.30;;;3.50;;
4810;SDS011;2419;51.276;6.472;2023-03-20T04:52:25;6.43;;;3.70;;
4810;SDS011;2419;51.276;6.472;2023-03-20T04:54:54;8.23;;;4.13;;
4810;SDS011;2419;51.276;6.472;2023-03-20T04:57:22;6.63;;;4.13;;
4810;SDS011;2419;51.276;6.472;2023-03-20T04:59:51;6.63;;;3.60;;
4810;SDS011;2419;51.276;6.472;2023-03-20T05:02:22;5.37;;;3.43;;
4810;SDS011;2419;51.276;6.472;2023-03-20T05:04:51;7.17;;;3.17;;
4810;SDS011;2419;51.276;6.472;2023-03-20T05:07:19;9.07;;;4.63;;
4810;SDS011;2419;51.276;6.472;2023-03-20T05:09:53;6.97;;;3.57;;
4810;SDS011;2419;51.276;6.472;2023-03-20T05:12:23;6.17;;;3.20;;
4810;SDS011;2419;51.276;6.472;2023-03-20T05:15:01;4.97;;;3.83;;
4810;SDS011;2419;51.276;6.472;2023-03-20T05:18:01;6.47;;;4.03;;
4810;SDS011;2419;51.276;6.472;2023-03-20T05:20:53;5.43;;;3.70;;
4810;SDS011;2419;51.276;6.472;2023-03-20T05:23:39;8.13;;;3.53;;
4810;SDS011;2419;51.276;6.472;2023-03-20T05:26:26;7.87;;;3.97;;
4810;SDS011;2419;51.276;6.472;2023-03-20T05:29:09;4.90;;;3.60;;
4810;SDS011;2419;51.276;6.472;2023-03-20T05:31:55;7.17;;;3.47;;
4810;SDS011;2419;51.276;6.472;2023-03-20T05:34:32;7.43;;;3.57;;
4810;SDS011;2419;51.276;6.472;2023-03-20T05:37:09;16.70;;;8.53;;
4810;SDS011;2419;51.276;6.472;2023-03-20T05:39:53;6.30;;;4.03;;
4810;SDS011;2419;51.276;6.472;2023-03-20T05:42:36;8.73;;;4.63;;
4810;SDS011;2419;51.276;6.472;2023-03-20T05:45:26;10.50;;;6.03;;
4810;SDS011;2419;51.276;6.472;2023-03-20T05:48:14;5.37;;;3.90;;
4810;SDS011;2419;51.276;6.472;2023-03-20T05:50:57;8.50;;;5.80;;
4810;SDS011;2419;51.276;6.472;2023-03-20T05:53:48;9.77;;;4.67;;
4810;SDS011;2419;51.276;6.472;2023-03-20T05:56:35;4.90;;;3.20;;
4810;SDS011;2419;51.276;6.472;2023-03-20T05:59:32;7.10;;;4.20;;
4810;SDS011;2419;51.276;6.472;2023-03-20T06:02:19;7.73;;;4.47;;
4810;SDS011;2419;51.276;6.472;2023-03-20T06:04:56;7.90;;;4.20;;
4810;SDS011;2419;51.276;6.472;2023-03-20T06:07:34;6.57;;;4.27;;
4810;SDS011;2419;51.276;6.472;2023-03-20T06:10:09;10.90;;;4.30;;
4810;SDS011;2419;51.276;6.472;2023-03-20T06:12:38;5.63;;;4.00;;
4810;SDS011;2419;51.276;6.472;2023-03-20T06:15:07;9.90;;;4.90;;
4810;SDS011;2419;51.276;6.472;2023-03-20T06:17:39;12.03;;;5.80;;
4810;SDS011;2419;51.276;6.472;2023-03-20T06:20:12;9.03;;;4.40;;
4810;SDS011;2419;51.276;6.472;2023-03-20T06:22:42;9.30;;;5.73;;
4810;SDS011;2419;51.276;6.472;2023-03-20T06:25:10;9.10;;;3.90;;
4810;SDS011;2419;51.276;6.472;2023-03-20T06:27:41;13.27;;;6.20;;
4810;SDS011;2419;51.276;6.472;2023-03-20T06:30:10;12.93;;;7.90;;
4810;SDS011;2419;51.276;6.472;2023-03-20T06:32:39;11.17;;;5.67;;
4810;SDS011;2419;51.276;6.472;2023-03-20T06:35:10;12.07;;;4.47;;
4810;SDS011;2419;51.276;6.472;2023-03-20T06:37:44;10.90;;;5.83;;
4810;SDS011;2419;51.276;6.472;2023-03-20T06:40:18;6.70;;;4.40;;
4810;SDS011;2419;51.276;6.472;2023-03-20T06:42:47;6.50;;;4.43;;
4810;SDS011;2419;51.276;6.472;2023-03-20T06:45:16;8.33;;;4.10;;
4810;SDS011;2419;51.276;6.472;2023-03-20T06:47:58;9.50;;;5.80;;
4810;SDS011;2419;51.276;6.472;2023-03-20T06:50:27;13.40;;;5.53;;
4810;SDS011;2419;51.276;6.472;2023-03-20T06:52:57;6.93;;;5.00;;
4810;SDS011;2419;51.276;6.472;2023-03-20T06:55:39;9.60;;;5.53;;
4810;SDS011;2419;51.276;6.472;2023-03-20T06:58:08;8.93;;;5.57;;
4810;SDS011;2419;51.276;6.472;2023-03-20T07:00:37;6.80;;;4.27;;
4810;SDS011;2419;51.276;6.472;2023-03-20T07:03:06;13.07;;;5.80;;
4810;SDS011;2419;51.276;6.472;2023-03-20T07:05:35;12.07;;;4.40;;
4810;SDS011;2419;51.276;6.472;2023-03-20T07:08:08;6.60;;;4.33;;
4810;SDS011;2419;51.276;6.472;2023-03-20T07:10:36;7.57;;;3.83;;
4810;SDS011;2419;51.276;6.472;2023-03-20T07:13:04;5.40;;;3.80;;
4810;SDS011;2419;51.276;6.472;2023-03-20T07:15:35;14.20;;;4.13;;
4810;SDS011;2419;51.276;6.472;2023-03-20T07:18:05;7.80;;;3.80;;
4810;SDS011;2419;51.276;6.472;2023-03-20T07:20:33;6.70;;;4.00;;
4810;SDS011;2419;51.276;6.472;2023-03-20T07:23:02;5.33;;;3.90;;
4810;SDS011;2419;51.276;6.472;2023-03-20T07:25:33;5.07;;;3.30;;
4810;SDS011;2419;51.276;6.472;2023-03-20T07:28:13;7.63;;;3.30;;
4810;SDS011;2419;51.276;6.472;2023-03-20T07:30:47;8.50;;;4.67;;
4810;SDS011;2419;51.276;6.472;2023-03-20T07:33:16;5.23;;;3.40;;
4810;SDS011;2419;51.276;6.472;2023-03-20T07:35:45;7.73;;;4.40;;
4810;SDS011;2419;51.276;6.472;2023-03-20T07:38:13;7.83;;;4.70;;
4810;SDS011;2419;51.276;6.472;2023-03-20T07:40:50;12.80;;;4.40;;
4810;SDS011;2419;51.276;6.472;2023-03-20T07:43:20;8.03;;;4.03;;
4810;SDS011;2419;51.276;6.472;2023-03-20T07:46:20;8.20;;;4.20;;
4810;SDS011;2419;51.276;6.472;2023-03-20T07:48:48;10.03;;;4.13;;
4810;SDS011;2419;51.276;6.472;2023-03-20T07:51:16;5.43;;;3.33;;
4810;SDS011;2419;51.276;6.472;2023-03-20T07:53:44;8.80;;;4.13;;
4810;SDS011;2419;51.276;6.472;2023-03-20T07:56:14;9.83;;;4.17;;
4810;SDS011;2419;51.276;6.472;2023-03-20T07:58:42;10.17;;;4.03;;
4810;SDS011;2419;51.276;6.472;2023-03-20T08:01:10;6.97;;;4.00;;
4810;SDS011;2419;51.276;6.472;2023-03-20T08:03:38;10.00;;;5.23;;
4810;SDS011;2419;51.276;6.472;2023-03-20T08:06:07;6.90;;;3.80;;
4810;SDS011;2419;51.276;6.472;2023-03-20T08:08:36;8.57;;;4.63;;
4810;SDS011;2419;51.276;6.472;2023-03-20T08:11:04;7.80;;;2.90;;
4810;SDS011;2419;51.276;6.472;2023-03-20T08:13:34;6.93;;;3.70;;
4810;SDS011;2419;51.276;6.472;2023-03-20T08:16:02;7.37;;;4.03;;
4810;SDS011;2419;51.276;6.472;2023-03-20T08:18:31;6.90;;;3.43;;
4810;SDS011;2419;51.276;6.472;2023-03-20T08:20:59;9.43;;;3.17;;
4810;SDS011;2419;51.276;6.472;2023-03-20T08:23:27;5.27;;;3.20;;
4810;SDS011;2419;51.276;6.472;2023-03-20T08:25:55;3.60;;;2.40;;
4810;SDS011;2419;51.276;6.472;2023-03-20T08:28:23;7.63;;;3.60;;
4810;SDS011;2419;51.276;6.472;2023-03-20T08:31:13;4.73;;;3.10;;
4810;SDS011;2419;51.276;6.472;2023-03-20T08:33:42;5.47;;;2.40;;
4810;SDS011;2419;51.276;6.472;2023-03-20T08:36:10;4.37;;;2.70;;
4810;SDS011;2419;51.276;6.472;2023-03-20T08:38:40;5.47;;;2.67;;
4810;SDS011;2419;51.276;6.472;2023-03-20T08:41:08;10.40;;;3.20;;
4810;SDS011;2419;51.276;6.472;2023-03-20T08:43:36;4.90;;;2.07;;
4810;SDS011;2419;51.276;6.472;2023-03-20T08:46:04;6.23;;;2.90;;
4810;SDS011;2419;51.276;6.472;2023-03-20T08:48:34;7.63;;;1.70;;
4810;SDS011;2419;51.276;6.472;2023-03-20T08:51:03;5.47;;;2.67;;
4810;SDS011;2419;51.276;6.472;2023-03-20T08:53:34;3.33;;;2.13;;
4810;SDS011;2419;51.276;6.472;2023-03-20T08:56:03;2.73;;;2.00;;
4810;SDS011;2419;51.276;6.472;2023-03-20T08:58:31;2.43;;;1.90;;
4810;SDS011;2419;51.276;6.472;2023-03-20T09:01:02;1.97;;;1.70;;
4810;SDS011;2419;51.276;6.472;2023-03-20T09:03:31;9.93;;;4.10;;
4810;SDS011;2419;51.276;6.472;2023-03-20T09:06:01;3.90;;;1.80;;
4810;SDS011;2419;51.276;6.472;2023-03-20T09:08:32;2.57;;;1.80;;
4810;SDS011;2419;51.276;6.472;2023-03-20T09:11:00;4.00;;;2.37;;
4810;SDS011;2419;51.276;6.472;2023-03-20T09:13:28;5.50;;;2.80;;
4810;SDS011;2419;51.276;6.472;2023-03-20T09:15:56;3.97;;;1.90;;
4810;SDS011;2419;51.276;6.472;2023-03-20T09:18:24;4.50;;;2.20;;
4810;SDS011;2419;51.276;6.472;2023-03-20T09:20:53;9.43;;;2.67;;
4810;SDS011;2419;51.276;6.472;2023-03-20T09:23:23;7.50;;;1.90;;
4810;SDS011;2419;51.276;6.472;2023-03-20T09:25:51;4.63;;;2.00;;
4810;SDS011;2419;51.276;6.472;2023-03-20T09:28:19;3.97;;;1.70;;
4810;SDS011;2419;51.276;6.472;2023-03-20T09:30:47;3.13;;;2.20;;
4810;SDS011;2419;51.276;6.472;2023-03-20T09:33:15;15.43;;;2.83;;
4810;SDS011;2419;51.276;6.472;2023-03-20T09:35:44;2.00;;;1.60;;
4810;SDS011;2419;51.276;6.472;2023-03-20T09:38:12;5.10;;;2.70;;
4810;SDS011;2419;51.276;6.472;2023-03-20T09:40:47;5.90;;;1.87;;
4810;SDS011;2419;51.276;6.472;2023-03-20T09:43:24;29.20;;;4.50;;
4810;SDS011;2419;51.276;6.472;2023-03-20T09:46:02;2.67;;;1.50;;
4810;SDS011;2419;51.276;6.472;2023-03-20T09:48:44;2.93;;;1.70;;
4810;SDS011;2419;51.276;6.472;2023-03-20T09:51:22;2.63;;;1.00;;
4810;SDS011;2419;51.276;6.472;2023-03-20T09:53:58;5.50;;;1.60;;
4810;SDS011;2419;51.276;6.472;2023-03-20T09:56:31;9.30;;;1.57;;
4810;SDS011;2419;51.276;6.472;2023-03-20T09:59:01;1.93;;;1.17;;
4810;SDS011;2419;51.276;6.472;2023-03-20T10:01:33;2.90;;;1.40;;
4810;SDS011;2419;51.276;6.472;2023-03-20T10:04:08;3.90;;;1.67;;
4810;SDS011;2419;51.276;6.472;2023-03-20T10:06:37;1.60;;;1.30;;
4810;SDS011;2419;51.276;6.472;2023-03-20T10:09:09;2.20;;;1.27;;
4810;SDS011;2419;51.276;6.472;2023-03-20T10:11:49;3.73;;;1.63;;
4810;SDS011;2419;51.276;6.472;2023-03-20T10:14:37;5.40;;;1.47;;
4810;SDS011;2419;51.276;6.472;2023-03-20T10:17:18;1.63;;;1.20;;
4810;SDS011;2419;51.276;6.472;2023-03-20T10:19:55;1.70;;;1.30;;
4810;SDS011;2419;51.276;6.472;2023-03-20T10:22:27;2.90;;;1.40;;
4810;SDS011;2419;51.276;6.472;2023-03-20T10:25:02;1.60;;;1.13;;
4810;SDS011;2419;51.276;6.472;2023-03-20T10:27:36;2.00;;;1.23;;
4810;SDS011;2419;51.276;6.472;2023-03-20T10:30:13;3.87;;;1.90;;
4810;SDS011;2419;51.276;6.472;2023-03-20T10:32:51;3.80;;;1.67;;
4810;SDS011;2419;51.276;6.472;2023-03-20T10:35:30;1.30;;;1.20;;
4810;SDS011;2419;51.276;6.472;2023-03-20T10:38:08;1.93;;;1.53;;
4810;SDS011;2419;51.276;6.472;2023-03-20T10:40:44;2.37;;;1.20;;
4810;SDS011;2419;51.276;6.472;2023-03-20T10:43:15;1.40;;;1.10;;
4810;SDS011;2419;51.276;6.472;2023-03-20T10:45:47;1.70;;;1.20;;
4810;SDS011;2419;51.276;6.472;2023-03-20T10:48:20;1.20;;;1.10;;
4810;SDS011;2419;51.276;6.472;2023-03-20T10:50:53;2.20;;;1.63;;
4810;SDS011;2419;51.276;6.472;2023-03-20T10:53:24;2.07;;;1.80;;
4810;SDS011;2419;51.276;6.472;2023-03-20T10:55:57;8.83;;;3.03;;
4810;SDS011;2419;51.276;6.472;2023-03-20T10:58:30;3.40;;;1.87;;
4810;SDS011;2419;51.276;6.472;2023-03-20T11:01:01;1.97;;;1.20;;
4810;SDS011;2419;51.276;6.472;2023-03-20T11:03:30;2.40;;;1.27;;
4810;SDS011;2419;51.276;6.472;2023-03-20T11:06:00;3.53;;;1.43;;
4810;SDS011;2419;51.276;6.472;2023-03-20T11:08:36;1.00;;;0.90;;
4810;SDS011;2419;51.276;6.472;2023-03-20T11:11:07;1.07;;;0.80;;
4810;SDS011;2419;51.276;6.472;2023-03-20T11:13:37;1.47;;;1.00;;
4810;SDS011;2419;51.276;6.472;2023-03-20T11:16:09;1.10;;;1.00;;
4810;SDS011;2419;51.276;6.472;2023-03-20T11:18:44;1.20;;;1.10;;
4810;SDS011;2419;51.276;6.472;2023-03-20T11:21:16;4.27;;;1.60;;
4810;SDS011;2419;51.276;6.472;2023-03-20T11:23:46;3.10;;;1.33;;
4810;SDS011;2419;51.276;6.472;2023-03-20T11:26:16;1.63;;;1.20;;
4810;SDS011;2419;51.276;6.472;2023-03-20T11:28:49;5.10;;;1.70;;
4810;SDS011;2419;51.276;6.472;2023-03-20T11:31:19;3.00;;;1.53;;
4810;SDS011;2419;51.276;6.472;2023-03-20T11:33:59;2.33;;;1.13;;
4810;SDS011;2419;51.276;6.472;2023-03-20T11:36:37;3.03;;;2.43;;
4810;SDS011;2419;51.276;6.472;2023-03-20T11:39:09;2.33;;;1.60;;
4810;SDS011;2419;51.276;6.472;2023-03-20T11:41:41;4.17;;;1.60;;
4810;SDS011;2419;51.276;6.472;2023-03-20T11:44:21;7.50;;;1.20;;
4810;SDS011;2419;51.276;6.472;2023-03-20T11:46:54;4.73;;;2.10;;
4810;SDS011;2419;51.276;6.472;2023-03-20T11:49:24;1.90;;;1.50;;
4810;SDS011;2419;51.276;6.472;2023-03-20T11:51:55;4.50;;;1.60;;
4810;SDS011;2419;51.276;6.472;2023-03-20T11:54:27;5.40;;;1.80;;
4810;SDS011;2419;51.276;6.472;2023-03-20T11:56:56;1.93;;;1.73;;
4810;SDS011;2419;51.276;6.472;2023-03-20T11:59:28;2.30;;;1.60;;
4810;SDS011;2419;51.276;6.472;2023-03-20T12:01:58;4.63;;;1.73;;
4810;SDS011;2419;51.276;6.472;2023-03-20T12:04:28;6.50;;;2.50;;
4810;SDS011;2419;51.276;6.472;2023-03-20T12:07:00;6.37;;;2.40;;
4810;SDS011;2419;51.276;6.472;2023-03-20T12:09:37;4.63;;;2.00;;
4810;SDS011;2419;51.276;6.472;2023-03-20T12:12:13;2.17;;;1.63;;
4810;SDS011;2419;51.276;6.472;2023-03-20T12:14:51;4.20;;;1.83;;
4810;SDS011;2419;51.276;6.472;2023-03-20T12:17:28;2.10;;;1.87;;
4810;SDS011;2419;51.276;6.472;2023-03-20T12:20:15;2.60;;;1.20;;
4810;SDS011;2419;51.276;6.472;2023-03-20T12:22:52;3.17;;;1.83;;
4810;SDS011;2419;51.276;6.472;2023-03-20T12:25:28;2.13;;;1.77;;
4810;SDS011;2419;51.276;6.472;2023-03-20T12:28:04;3.03;;;1.43;;
4810;SDS011;2419;51.276;6.472;2023-03-20T12:30:44;1.80;;;1.57;;
4810;SDS011;2419;51.276;6.472;2023-03-20T12:33:21;3.53;;;1.87;;
4810;SDS011;2419;51.276;6.472;2023-03-20T12:35:58;1.97;;;1.67;;
4810;SDS011;2419;51.276;6.472;2023-03-20T12:38:28;2.33;;;1.40;;
4810;SDS011;2419;51.276;6.472;2023-03-20T12:40:59;1.87;;;1.00;;
4810;SDS011;2419;51.276;6.472;2023-03-20T12:43:39;3.67;;;1.40;;
4810;SDS011;2419;51.276;6.472;2023-03-20T12:46:43;4.40;;;2.27;;
4810;SDS011;2419;51.276;6.472;2023-03-20T12:49:20;1.33;;;1.23;;
4810;SDS011;2419;51.276;6.472;2023-03-20T12:52:00;1.33;;;1.17;;
4810;SDS011;2419;51.276;6.472;2023-03-20T12:54:39;1.57;;;1.40;;
4810;SDS011;2419;51.276;6.472;2023-03-20T12:57:26;3.73;;;1.70;;
4810;SDS011;2419;51.276;6.472;2023-03-20T13:00:03;3.07;;;1.53;;
4810;SDS011;2419;51.276;6.472;2023-03-20T13:02:46;1.40;;;1.00;;
4810;SDS011;2419;51.276;6.472;2023-03-20T13:05:27;3.43;;;1.33;;
4810;SDS011;2419;51.276;6.472;2023-03-20T13:08:07;3.47;;;1.43;;
4810;SDS011;2419;51.276;6.472;2023-03-20T13:10:54;3.40;;;1.73;;
4810;SDS011;2419;51.276;6.472;2023-03-20T13:13:29;1.33;;;1.23;;
4810;SDS011;2419;51.276;6.472;2023-03-20T13:16:06;2.83;;;1.60;;
4810;SDS011;2419;51.276;6.472;2023-03-20T13:18:46;1.23;;;1.13;;
4810;SDS011;2419;51.276;6.472;2023-03-20T13:21:26;5.77;;;1.70;;
4810;SDS011;2419;51.276;6.472;2023-03-20T13:24:10;1.30;;;1.20;;
4810;SDS011;2419;51.276;6.472;2023-03-20T13:26:51;5.50;;;1.73;;
4810;SDS011;2419;51.276;6.472;2023-03-20T13:29:26;1.80;;;1.27;;
4810;SDS011;2419;51.276;6.472;2023-03-20T13:32:02;4.03;;;1.57;;
4810;SDS011;2419;51.276;6.472;2023-03-20T13:34:44;5.10;;;1.60;;
4810;SDS011;2419;51.276;6.472;2023-03-20T13:37:22;3.17;;;1.27;;
4810;SDS011;2419;51.276;6.472;2023-03-20T13:40:00;6.00;;;1.90;;
4810;SDS011;2419;51.276;6.472;2023-03-20T13:42:33;11.83;;;1.30;;
4810;SDS011;2419;51.276;6.472;2023-03-20T13:45:06;3.07;;;1.43;;
4810;SDS011;2419;51.276;6.472;2023-03-20T13:47:48;2.80;;;1.43;;
4810;SDS011;2419;51.276;6.472;2023-03-20T13:50:24;1.90;;;1.20;;
4810;SDS011;2419;51.276;6.472;2023-03-20T13:53:05;3.10;;;1.60;;
4810;SDS011;2419;51.276;6.472;2023-03-20T13:55:42;3.73;;;2.50;;
4810;SDS011;2419;51.276;6.472;2023-03-20T13:58:18;3.43;;;2.20;;
4810;SDS011;2419;51.276;6.472;2023-03-20T14:00:55;2.70;;;1.30;;
4810;SDS011;2419;51.276;6.472;2023-03-20T14:03:30;3.20;;;1.77;;
4810;SDS011;2419;51.276;6.472;2023-03-20T14:06:02;1.50;;;1.40;;
4810;SDS011;2419;51.276;6.472;2023-03-20T14:08:46;2.73;;;1.50;;
4810;SDS011;2419;51.276;6.472;2023-03-20T14:11:25;4.33;;;1.80;;
4810;SDS011;2419;51.276;6.472;2023-03-20T14:14:02;2.40;;;1.90;;
4810;SDS011;2419;51.276;6.472;2023-03-20T14:16:34;2.00;;;1.73;;
4810;SDS011;2419;51.276;6.472;2023-03-20T14:19:04;2.90;;;1.90;;
4810;SDS011;2419;51.276;6.472;2023-03-20T14:21:37;1.50;;;1.40;;
4810;SDS011;2419;51.276;6.472;2023-03-20T14:24:06;6.50;;;2.07;;
4810;SDS011;2419;51.276;6.472;2023-03-20T14:26:38;1.93;;;1.67;;
4810;SDS011;2419;51.276;6.472;2023-03-20T14:32:02;5.60;;;1.90;;
4810;SDS011;2419;51.276;6.472;2023-03-20T14:34:48;10.70;;;2.47;;
4810;SDS011;2419;51.276;6.472;2023-03-20T14:37:28;1.83;;;1.60;;
4810;SDS011;2419;51.276;6.472;2023-03-20T14:40:04;3.03;;;2.23;;
4810;SDS011;2419;51.276;6.472;2023-03-20T14:42:46;2.60;;;1.40;;
4810;SDS011;2419;51.276;6.472;2023-03-20T14:45:28;4.03;;;1.90;;
4810;SDS011;2419;51.276;6.472;2023-03-20T14:48:04;5.07;;;1.80;;
4810;SDS011;2419;51.276;6.472;2023-03-20T14:50:38;3.30;;;1.70;;
4810;SDS011;2419;51.276;6.472;2023-03-20T14:53:18;2.27;;;1.57;;
4810;SDS011;2419;51.276;6.472;2023-03-20T14:55:52;3.87;;;1.77;;
4810;SDS011;2419;51.276;6.472;2023-03-20T14:58:48;5.10;;;1.70;;
4810;SDS011;2419;51.276;6.472;2023-03-20T15:01:24;6.97;;;1.60;;
4810;SDS011;2419;51.276;6.472;2023-03-20T15:04:19;1.90;;;1.73;;
4810;SDS011;2419;51.276;6.472;2023-03-20T15:06:56;5.50;;;3.40;;
4810;SDS011;2419;51.276;6.472;2023-03-20T15:09:27;1.40;;;1.30;;
4810;SDS011;2419;51.276;6.472;2023-03-20T15:11:59;1.33;;;1.20;;
4810;SDS011;2419;51.276;6.472;2023-03-20T15:14:32;3.70;;;1.90;;
4810;SDS011;2419;51.276;6.472;2023-03-20T15:17:14;1.87;;;1.30;;
4810;SDS011;2419;51.276;6.472;2023-03-20T15:19:44;1.47;;;1.37;;
4810;SDS011;2419;51.276;6.472;2023-03-20T15:22:16;2.33;;;1.70;;
4810;SDS011;2419;51.276;6.472;2023-03-20T15:24:51;3.20;;;1.50;;
4810;SDS011;2419;51.276;6.472;2023-03-20T15:27:22;2.50;;;1.20;;
4810;SDS011;2419;51.276;6.472;2023-03-20T15:29:55;2.57;;;1.67;;
4810;SDS011;2419;51.276;6.472;2023-03-20T15:32:26;3.23;;;1.93;;
4810;SDS011;2419;51.276;6.472;2023-03-20T15:34:55;4.40;;;2.13;;
4810;SDS011;2419;51.276;6.472;2023-03-20T15:37:23;2.03;;;1.37;;
4810;SDS011;2419;51.276;6.472;2023-03-20T15:39:54;1.83;;;1.50;;
4810;SDS011;2419;51.276;6.472;2023-03-20T15:42:24;2.40;;;1.90;;
4810;SDS011;2419;51.276;6.472;2023-03-20T15:44:53;3.17;;;1.60;;
4810;SDS011;2419;51.276;6.472;2023-03-20T15:47:23;2.73;;;1.70;;
4810;SDS011;2419;51.276;6.472;2023-03-20T15:49:52;2.40;;;1.30;;
4810;SDS011;2419;51.276;6.472;2023-03-20T15:52:26;1.43;;;1.20;;
4810;SDS011;2419;51.276;6.472;2023-03-20T15:54:59;1.43;;;1.33;;
4810;SDS011;2419;51.276;6.472;2023-03-20T15:57:31;1.97;;;1.73;;
4810;SDS011;2419;51.276;6.472;2023-03-20T16:00:02;1.93;;;1.50;;
4810;SDS011;2419;51.276;6.472;2023-03-20T16:02:33;3.10;;;1.57;;
4810;SDS011;2419;51.276;6.472;2023-03-20T16:05:02;3.50;;;1.73;;
4810;SDS011;2419;51.276;6.472;2023-03-20T16:07:31;4.30;;;2.43;;
4810;SDS011;2419;51.276;6.472;2023-03-20T16:10:01;4.10;;;1.50;;